createdAt,value
2023-03-26T00:02:02.949Z,25.90
2023-03-26T00:04:33.767Z,25.90
2023-03-26T00:07:01.832Z,25.90
2023-03-26T00:09:30.522Z,25.90
2023-03-26T00:11:58.172Z,25.90
2023-03-26T00:14:26.830Z,25.90
2023-03-26T00:16:54.587Z,25.90
2023-03-26T00:19:22.864Z,25.90
2023-03-26T00:21:53.187Z,25.90
2023-03-26T00:24:20.874Z,25.90
2023-03-26T00:26:53.478Z,25.90
2023-03-26T00:29:23.010Z,25.90
2023-03-26T00:31:50.841Z,25.90
2023-03-26T00:34:19.290Z,25.80
2023-03-26T00:36:47.833Z,25.80
2023-03-26T00:39:17.839Z,25.80
2023-03-26T00:41:45.782Z,25.80
2023-03-26T00:44:13.502Z,25.80
2023-03-26T00:46:41.376Z,25.80
2023-03-26T00:49:10.953Z,25.80
2023-03-26T00:51:39.281Z,25.80
2023-03-26T00:54:08.682Z,25.80
2023-03-26T00:56:38.690Z,25.80
2023-03-26T00:59:06.557Z,25.80
2023-03-26T01:01:34.236Z,25.80
2023-03-26T01:04:30.577Z,25.80
2023-03-26T01:07:01.529Z,25.70
2023-03-26T01:09:34.643Z,25.70
2023-03-26T01:12:06.704Z,25.70
2023-03-26T01:14:34.531Z,25.70
2023-03-26T01:17:03.681Z,25.70
2023-03-26T01:19:39.054Z,25.70
2023-03-26T01:22:09.621Z,25.70
2023-03-26T01:24:38.756Z,25.70
2023-03-26T01:27:13.048Z,25.70
2023-03-26T01:29:45.388Z,25.70
2023-03-26T01:32:23.560Z,25.70
2023-03-26T01:35:07.377Z,25.70
2023-03-26T01:37:40.760Z,25.70
2023-03-26T01:40:16.243Z,25.70
2023-03-26T01:42:49.105Z,25.70
2023-03-26T01:45:19.035Z,25.70
2023-03-26T01:47:47.768Z,25.60
2023-03-26T01:50:16.041Z,25.60
2023-03-26T01:52:43.770Z,25.60
2023-03-26T01:55:14.421Z,25.60
2023-03-26T01:58:00.939Z,25.60
2023-03-26T02:00:32.395Z,25.60
2023-03-26T02:03:18.883Z,25.60
2023-03-26T02:05:53.747Z,25.60
2023-03-26T02:08:25.210Z,25.60
2023-03-26T02:10:58.545Z,25.60
2023-03-26T02:13:27.242Z,25.60
2023-03-26T02:16:00.652Z,25.60
2023-03-26T02:18:36.185Z,25.60
2023-03-26T02:21:05.839Z,25.60
2023-03-26T02:23:35.983Z,25.60
2023-03-26T02:26:07.449Z,25.60
2023-03-26T02:28:35.537Z,25.60
2023-03-26T02:31:03.496Z,25.50
2023-03-26T02:33:31.961Z,25.50
2023-03-26T02:36:02.056Z,25.50
2023-03-26T02:38:30.135Z,25.50
2023-03-26T02:40:57.874Z,25.50
2023-03-26T02:43:26.862Z,25.50
2023-03-26T02:45:54.711Z,25.50
2023-03-26T02:48:22.677Z,25.50
2023-03-26T02:50:54.342Z,25.50
2023-03-26T02:53:24.106Z,25.50
2023-03-26T02:55:52.238Z,25.50
2023-03-26T02:58:20.083Z,25.50
2023-03-26T03:00:50.880Z,25.50
2023-03-26T03:03:18.592Z,25.50
2023-03-26T03:05:46.291Z,25.50
2023-03-26T03:08:13.963Z,25.50
2023-03-26T03:10:42.420Z,25.50
2023-03-26T03:13:10.287Z,25.50
2023-03-26T03:15:37.968Z,25.50
2023-03-26T03:18:07.515Z,25.50
2023-03-26T03:20:35.831Z,25.50
2023-03-26T03:23:03.620Z,25.50
2023-03-26T03:25:32.537Z,25.40
2023-03-26T03:28:00.265Z,25.40
2023-03-26T03:30:27.976Z,25.40
2023-03-26T03:32:58.250Z,25.40
2023-03-26T03:35:29.638Z,25.40
2023-03-26T03:37:57.654Z,25.40
2023-03-26T03:40:25.387Z,25.40
2023-03-26T03:42:53.300Z,25.40
2023-03-26T03:45:20.996Z,25.40
2023-03-26T03:47:48.670Z,25.40
2023-03-26T03:50:16.332Z,25.40
2023-03-26T03:52:45.586Z,25.40
2023-03-26T03:55:14.047Z,25.40
2023-03-26T03:57:42.182Z,25.40
2023-03-26T04:00:11.822Z,25.40
2023-03-26T04:02:42.854Z,25.40
2023-03-26T04:05:11.676Z,25.40
2023-03-26T04:07:40.369Z,25.40
2023-03-26T04:10:10.518Z,25.30
2023-03-26T04:12:38.099Z,25.30
2023-03-26T04:15:06.839Z,25.30
2023-03-26T04:17:34.519Z,25.30
2023-03-26T04:20:14.543Z,25.30
2023-03-26T04:22:42.939Z,25.30
2023-03-26T04:25:13.336Z,25.30
2023-03-26T04:27:43.309Z,25.30
2023-03-26T04:30:15.497Z,25.30
2023-03-26T04:32:44.773Z,25.30
2023-03-26T04:35:15.121Z,25.30
2023-03-26T04:37:44.437Z,25.30
2023-03-26T04:40:16.536Z,25.30
2023-03-26T04:42:45.900Z,25.30
2023-03-26T04:45:15.884Z,25.30
2023-03-26T04:47:43.520Z,25.30
2023-03-26T04:50:12.331Z,25.30
2023-03-26T04:52:40.112Z,25.20
2023-03-26T04:55:18.555Z,25.20
2023-03-26T04:57:52.956Z,25.20
2023-03-26T05:00:21.401Z,25.20
2023-03-26T05:02:50.410Z,25.20
2023-03-26T05:05:18.854Z,25.20
2023-03-26T05:07:46.544Z,25.20
2023-03-26T05:10:16.186Z,25.20
2023-03-26T05:12:44.193Z,25.20
2023-03-26T05:15:14.390Z,25.20
2023-03-26T05:17:42.798Z,25.20
2023-03-26T05:20:20.620Z,25.20
2023-03-26T05:22:49.217Z,25.20
2023-03-26T05:25:17.712Z,25.20
2023-03-26T05:27:45.673Z,25.20
2023-03-26T05:30:17.351Z,25.20
2023-03-26T05:32:46.132Z,25.20
2023-03-26T05:35:15.328Z,25.20
2023-03-26T05:37:45.087Z,25.20
2023-03-26T05:40:14.962Z,25.20
2023-03-26T05:42:42.671Z,25.20
2023-03-26T05:45:12.272Z,25.20
2023-03-26T05:47:41.579Z,25.20
2023-03-26T05:50:10.973Z,25.20
2023-03-26T05:52:39.188Z,25.30
2023-03-26T05:55:08.036Z,25.30
2023-03-26T05:57:36.778Z,25.30
2023-03-26T06:00:07.732Z,25.30
2023-03-26T06:02:35.802Z,25.30
2023-03-26T06:05:05.648Z,25.30
2023-03-26T06:07:33.919Z,25.30
2023-03-26T06:10:02.541Z,25.30
2023-03-26T06:12:30.404Z,25.30
2023-03-26T06:14:57.988Z,25.30
2023-03-26T06:17:25.764Z,25.30
2023-03-26T06:19:53.364Z,25.30
2023-03-26T06:22:22.423Z,25.30
2023-03-26T06:24:50.227Z,25.30
2023-03-26T06:27:17.857Z,25.30
2023-03-26T06:29:45.458Z,25.30
2023-03-26T06:32:19.506Z,25.30
2023-03-26T06:34:48.421Z,25.30
2023-03-26T06:37:16.286Z,25.30
2023-03-26T06:39:45.886Z,25.30
2023-03-26T06:42:13.639Z,25.30
2023-03-26T06:44:41.300Z,25.30
2023-03-26T06:47:08.937Z,25.30
2023-03-26T06:49:38.119Z,25.30
2023-03-26T06:52:06.159Z,25.30
2023-03-26T06:54:33.805Z,25.30
2023-03-26T06:57:02.851Z,25.30
2023-03-26T06:59:30.621Z,25.30
2023-03-26T07:01:58.232Z,25.40
2023-03-26T07:04:25.950Z,25.40
2023-03-26T07:06:53.975Z,25.40
2023-03-26T07:09:21.573Z,25.40
2023-03-26T07:11:49.233Z,25.40
2023-03-26T07:14:18.322Z,25.40
2023-03-26T07:16:46.278Z,25.40
2023-03-26T07:19:13.956Z,25.40
2023-03-26T07:21:42.250Z,25.40
2023-03-26T07:24:12.108Z,25.40
2023-03-26T07:26:48.972Z,25.50
2023-03-26T07:29:26.025Z,25.50
2023-03-26T07:31:58.493Z,25.50
2023-03-26T07:34:39.220Z,25.50
2023-03-26T07:37:17.139Z,25.50
2023-03-26T07:39:50.191Z,25.50
2023-03-26T07:42:32.428Z,25.50
2023-03-26T07:45:11.961Z,25.50
2023-03-26T07:47:42.640Z,25.50
2023-03-26T07:50:18.100Z,25.60
2023-03-26T07:52:46.556Z,25.60
2023-03-26T07:55:16.029Z,25.60
2023-03-26T07:57:54.988Z,25.60
2023-03-26T08:00:30.085Z,25.60
2023-03-26T08:03:24.708Z,25.60
2023-03-26T08:05:59.449Z,25.70
2023-03-26T08:08:32.041Z,25.70
2023-03-26T08:11:09.431Z,25.70
2023-03-26T08:13:43.251Z,25.70
2023-03-26T08:16:16.661Z,25.70
2023-03-26T08:18:51.913Z,25.70
2023-03-26T08:21:23.487Z,25.80
2023-03-26T08:24:01.666Z,25.80
2023-03-26T08:26:36.748Z,25.80
2023-03-26T08:29:14.583Z,25.80
2023-03-26T08:31:45.903Z,25.80
2023-03-26T08:34:14.671Z,25.80
2023-03-26T08:36:42.329Z,25.80
2023-03-26T08:42:27.523Z,25.90
2023-03-26T08:45:27.112Z,25.90
2023-03-26T08:48:28.941Z,25.90
2023-03-26T08:51:20.642Z,25.90
2023-03-26T08:54:23.677Z,25.90
2023-03-26T08:57:00.013Z,25.90
2023-03-26T09:00:00.652Z,26.00
2023-03-26T09:02:58.000Z,26.00
2023-03-26T09:05:52.956Z,26.00
2023-03-26T09:08:53.861Z,25.90
2023-03-26T09:11:47.176Z,25.90
2023-03-26T09:14:41.054Z,25.90
2023-03-26T09:17:41.623Z,25.90
2023-03-26T09:20:49.237Z,25.90
2023-03-26T09:23:38.979Z,25.80
2023-03-26T09:26:27.854Z,25.80
2023-03-26T09:29:32.375Z,25.70
2023-03-26T09:32:29.209Z,25.70
2023-03-26T09:35:13.286Z,25.60
2023-03-26T09:37:58.809Z,25.60
2023-03-26T09:40:37.741Z,25.60
2023-03-26T09:43:32.304Z,25.60
2023-03-26T09:46:13.660Z,25.50
2023-03-26T09:49:07.257Z,25.50
2023-03-26T09:51:49.651Z,25.50
2023-03-26T09:54:48.554Z,25.50
2023-03-26T09:57:29.154Z,25.50
2023-03-26T10:00:17.516Z,25.50
2023-03-26T10:02:55.306Z,25.50
2023-03-26T10:05:41.444Z,25.50
2023-03-26T10:08:35.235Z,25.50
2023-03-26T10:11:10.246Z,25.50
2023-03-26T10:13:53.627Z,25.50
2023-03-26T10:16:28.652Z,25.60
2023-03-26T10:19:09.307Z,25.60
2023-03-26T10:21:44.692Z,25.60
2023-03-26T10:24:28.512Z,25.60
2023-03-26T10:27:10.229Z,25.60
2023-03-26T10:30:14.648Z,25.60
2023-03-26T10:32:52.067Z,25.70
2023-03-26T10:35:33.084Z,25.70
2023-03-26T10:38:15.470Z,25.70
2023-03-26T10:40:52.495Z,25.70
2023-03-26T10:43:49.722Z,25.70
2023-03-26T10:46:40.764Z,25.70
2023-03-26T10:49:49.018Z,25.80
2023-03-26T10:52:21.677Z,25.80
2023-03-26T10:54:56.929Z,25.80
2023-03-26T10:57:39.250Z,25.90
2023-03-26T11:00:23.287Z,25.90
2023-03-26T11:03:08.234Z,25.90
2023-03-26T11:05:48.978Z,25.90
2023-03-26T11:08:31.687Z,26.00
2023-03-26T11:11:08.006Z,26.00
2023-03-26T11:13:46.678Z,26.00
2023-03-26T11:16:21.880Z,26.10
2023-03-26T11:18:53.549Z,26.10
2023-03-26T11:21:27.185Z,26.10
2023-03-26T11:24:07.847Z,26.10
2023-03-26T11:26:49.004Z,26.10
2023-03-26T11:29:32.547Z,26.20
2023-03-26T11:32:06.427Z,26.20
2023-03-26T11:34:38.787Z,26.20
2023-03-26T11:37:15.114Z,26.20
2023-03-26T11:39:49.708Z,26.20
2023-03-26T11:42:20.461Z,26.20
2023-03-26T11:44:54.104Z,26.20
2023-03-26T11:47:27.590Z,26.20
2023-03-26T11:49:58.604Z,26.30
2023-03-26T11:52:26.756Z,26.20
2023-03-26T11:54:58.462Z,26.20
2023-03-26T11:57:30.792Z,26.20
2023-03-26T12:00:04.305Z,26.20
2023-03-26T12:02:40.160Z,26.20
2023-03-26T12:05:18.108Z,26.20
2023-03-26T12:07:57.211Z,26.20
2023-03-26T12:10:28.285Z,26.20
2023-03-26T12:12:58.791Z,26.20
2023-03-26T12:15:27.372Z,26.20
2023-03-26T12:17:58.763Z,26.20
2023-03-26T12:20:38.638Z,26.20
2023-03-26T12:23:08.180Z,26.20
2023-03-26T12:25:37.457Z,26.20
2023-03-26T12:28:07.406Z,26.20
2023-03-26T12:30:37.362Z,26.20
2023-03-26T12:33:08.907Z,26.20
2023-03-26T12:35:37.091Z,26.20
2023-03-26T12:38:24.220Z,26.20
2023-03-26T12:41:07.930Z,26.20
2023-03-26T12:44:51.012Z,26.20
2023-03-26T12:47:57.131Z,26.30
2023-03-26T12:49:21.954Z,26.30
2023-03-26T12:51:52.855Z,26.30
2023-03-26T12:54:44.786Z,26.30
2023-03-26T12:57:22.750Z,26.30
2023-03-26T13:00:36.902Z,26.30
2023-03-26T13:03:16.306Z,26.30
2023-03-26T13:05:57.954Z,26.40
2023-03-26T13:08:52.347Z,26.40
2023-03-26T13:11:32.663Z,26.40
2023-03-26T13:14:15.781Z,26.40
2023-03-26T13:16:53.050Z,26.40
2023-03-26T13:19:28.788Z,26.50
2023-03-26T13:22:09.594Z,26.50
2023-03-26T13:24:49.221Z,26.50
2023-03-26T13:27:29.291Z,26.50
2023-03-26T13:30:03.422Z,26.60
2023-03-26T13:32:48.321Z,26.60
2023-03-26T13:35:26.983Z,26.60
2023-03-26T13:38:04.139Z,26.60
2023-03-26T13:40:40.052Z,26.60
2023-03-26T13:43:23.540Z,26.60
2023-03-26T13:45:57.450Z,26.70
2023-03-26T13:48:29.089Z,26.70
2023-03-26T13:51:02.787Z,26.70
2023-03-26T13:53:38.780Z,26.70
2023-03-26T13:56:09.496Z,26.80
2023-03-26T13:58:43.118Z,26.80
2023-03-26T14:01:16.774Z,26.80
2023-03-26T14:03:53.917Z,26.90
2023-03-26T14:06:43.497Z,26.90
2023-03-26T14:09:18.708Z,26.90
2023-03-26T14:12:20.860Z,26.90
2023-03-26T14:14:54.360Z,27.00
2023-03-26T14:17:27.156Z,27.00
2023-03-26T14:20:29.961Z,27.00
2023-03-26T14:23:16.762Z,27.10
2023-03-26T14:25:57.932Z,27.10
2023-03-26T14:28:47.367Z,27.10
2023-03-26T14:31:27.360Z,27.20
2023-03-26T14:34:04.882Z,27.20
2023-03-26T14:36:49.965Z,27.20
2023-03-26T14:39:39.647Z,27.30
2023-03-26T14:42:18.833Z,27.30
2023-03-26T14:45:10.032Z,27.30
2023-03-26T14:47:44.263Z,27.30
2023-03-26T14:50:35.791Z,27.40
2023-03-26T14:53:11.863Z,27.40
2023-03-26T14:55:58.557Z,27.40
2023-03-26T14:58:49.252Z,27.40
2023-03-26T15:01:26.669Z,27.40
2023-03-26T15:04:31.898Z,27.40
2023-03-26T15:07:49.121Z,27.40
2023-03-26T15:10:35.692Z,27.40
2023-03-26T15:13:46.798Z,27.40
2023-03-26T15:16:42.992Z,27.40
2023-03-26T15:19:43.148Z,27.40
2023-03-26T15:22:45.470Z,27.50
2023-03-26T15:26:00.776Z,27.40
2023-03-26T15:29:01.241Z,27.50
2023-03-26T15:31:50.912Z,27.50
2023-03-26T15:34:54.709Z,27.50
2023-03-26T15:37:52.642Z,27.40
2023-03-26T15:40:45.486Z,27.40
2023-03-26T15:43:15.138Z,27.40
2023-03-26T15:45:46.032Z,27.40
2023-03-26T15:48:35.533Z,27.40
2023-03-26T15:51:16.952Z,27.40
2023-03-26T15:53:50.149Z,27.40
2023-03-26T15:56:28.139Z,27.40
2023-03-26T15:59:06.259Z,27.40
2023-03-26T16:01:46.682Z,27.30
2023-03-26T16:04:30.320Z,27.30
2023-03-26T16:07:03.512Z,27.30
2023-03-26T16:09:50.752Z,27.30
2023-03-26T16:12:34.377Z,27.30
2023-03-26T16:15:30.796Z,27.30
2023-03-26T16:18:22.476Z,27.20
2023-03-26T16:20:54.816Z,27.20
2023-03-26T16:23:30.146Z,27.20
2023-03-26T16:26:14.062Z,27.20
2023-03-26T16:29:06.684Z,27.20
2023-03-26T16:31:38.252Z,27.10
2023-03-26T16:34:30.185Z,27.10
2023-03-26T16:37:01.005Z,27.10
2023-03-26T16:39:43.635Z,27.10
2023-03-26T16:42:35.954Z,27.00
2023-03-26T16:45:18.837Z,27.00
2023-03-26T16:47:56.194Z,27.00
2023-03-26T16:50:31.103Z,27.00
2023-03-26T16:53:13.456Z,27.00
2023-03-26T16:55:47.018Z,27.00
2023-03-26T16:58:19.592Z,26.90
2023-03-26T17:00:49.335Z,26.90
2023-03-26T17:03:39.661Z,26.90
2023-03-26T17:06:26.067Z,26.90
2023-03-26T17:09:01.488Z,26.90
2023-03-26T17:11:39.896Z,26.80
2023-03-26T17:14:18.963Z,26.80
2023-03-26T17:16:50.122Z,26.80
2023-03-26T17:19:31.505Z,26.80
2023-03-26T17:22:06.887Z,26.80
2023-03-26T17:24:48.893Z,26.70
2023-03-26T17:27:27.891Z,26.70
2023-03-26T17:30:05.017Z,26.70
2023-03-26T17:32:58.720Z,26.70
2023-03-26T17:35:38.957Z,26.60
2023-03-26T17:38:31.155Z,26.60
2023-03-26T17:41:01.209Z,26.60
2023-03-26T17:43:42.885Z,26.60
2023-03-26T17:46:23.262Z,26.60
2023-03-26T17:48:57.775Z,26.50
2023-03-26T17:51:40.246Z,26.50
2023-03-26T17:54:15.373Z,26.50
2023-03-26T17:56:45.044Z,26.50
2023-03-26T17:59:18.351Z,26.50
2023-03-26T18:01:48.177Z,26.50
2023-03-26T18:04:18.614Z,26.50
2023-03-26T18:07:04.001Z,26.40
2023-03-26T18:09:45.701Z,26.40
2023-03-26T18:12:40.780Z,26.40
2023-03-26T18:15:22.638Z,26.40
2023-03-26T18:17:50.411Z,26.40
2023-03-26T18:20:24.441Z,26.40
2023-03-26T18:22:53.188Z,26.30
2023-03-26T18:25:25.806Z,26.30
2023-03-26T18:27:54.949Z,26.30
2023-03-26T18:30:25.914Z,26.30
2023-03-26T18:33:01.635Z,26.30
2023-03-26T18:35:39.277Z,26.30
2023-03-26T18:38:07.175Z,26.30
2023-03-26T18:40:41.278Z,26.30
2023-03-26T18:43:25.360Z,26.30
2023-03-26T18:46:02.234Z,26.30
2023-03-26T18:48:30.260Z,26.30
2023-03-26T18:51:05.927Z,26.30
2023-03-26T18:53:39.606Z,26.30
2023-03-26T18:56:20.394Z,26.30
2023-03-26T18:58:53.081Z,26.30
2023-03-26T19:01:25.947Z,26.20
2023-03-26T19:03:55.290Z,26.20
2023-03-26T19:06:25.912Z,26.20
2023-03-26T19:08:54.483Z,26.20
2023-03-26T19:11:22.542Z,26.20
2023-03-26T19:14:03.984Z,26.20
2023-03-26T19:16:36.602Z,26.20
2023-03-26T19:19:07.265Z,26.20
2023-03-26T19:21:36.722Z,26.20
2023-03-26T19:24:06.008Z,26.20
2023-03-26T19:26:34.017Z,26.20
2023-03-26T19:29:03.859Z,26.20
2023-03-26T19:31:34.738Z,26.20
2023-03-26T19:34:05.172Z,26.20
2023-03-26T19:36:34.656Z,26.20
2023-03-26T19:39:12.957Z,26.20
2023-03-26T19:41:43.738Z,26.20
2023-03-26T19:44:21.786Z,26.20
2023-03-26T19:46:53.981Z,26.20
2023-03-26T19:49:31.649Z,26.20
2023-03-26T19:52:12.221Z,26.20
2023-03-26T19:55:00.032Z,26.20
2023-03-26T19:57:32.870Z,26.20
2023-03-26T20:00:01.966Z,26.10
2023-03-26T20:02:29.686Z,26.20
2023-03-26T20:04:57.397Z,26.10
2023-03-26T20:07:35.620Z,26.20
2023-03-26T20:10:05.573Z,26.10
2023-03-26T20:12:33.607Z,26.10
2023-03-26T20:15:02.914Z,26.10
2023-03-26T20:17:31.239Z,26.10
2023-03-26T20:19:59.642Z,26.10
2023-03-26T20:22:27.378Z,26.20
2023-03-26T20:24:55.101Z,26.10
2023-03-26T20:27:22.665Z,26.20
2023-03-26T20:29:50.261Z,26.20
2023-03-26T20:32:23.201Z,26.20
2023-03-26T20:34:52.264Z,26.20
2023-03-26T20:37:20.068Z,26.20
2023-03-26T20:39:47.670Z,26.20
2023-03-26T20:42:18.129Z,26.20
2023-03-26T20:44:45.697Z,26.20
2023-03-26T20:47:14.224Z,26.20
2023-03-26T20:49:43.261Z,26.20
2023-03-26T20:52:13.474Z,26.20
2023-03-26T20:54:41.862Z,26.20
2023-03-26T20:57:11.777Z,26.20
2023-03-26T20:59:39.848Z,26.20
2023-03-26T21:02:07.597Z,26.20
2023-03-26T21:04:35.272Z,26.20
2023-03-26T21:07:14.923Z,26.20
2023-03-26T21:09:46.524Z,26.20
2023-03-26T21:12:22.027Z,26.20
2023-03-26T21:14:50.189Z,26.20
2023-03-26T21:17:21.029Z,26.20
2023-03-26T21:19:50.138Z,26.20
2023-03-26T21:22:31.330Z,26.20
2023-03-26T21:25:18.194Z,26.20
2023-03-26T21:27:55.430Z,26.20
2023-03-26T21:30:23.758Z,26.20
2023-03-26T21:32:52.143Z,26.20
2023-03-26T21:35:20.800Z,26.20
2023-03-26T21:37:50.801Z,26.20
2023-03-26T21:40:19.431Z,26.20
2023-03-26T21:42:48.785Z,26.20
2023-03-26T21:45:17.306Z,26.20
2023-03-26T21:47:45.969Z,26.20
2023-03-26T21:50:16.294Z,26.20
2023-03-26T21:52:48.214Z,26.20
2023-03-26T21:55:19.282Z,26.20
2023-03-26T21:58:02.312Z,26.20
2023-03-26T22:00:55.682Z,26.20
2023-03-26T22:03:28.804Z,26.20
2023-03-26T22:06:01.819Z,26.20
2023-03-26T22:08:31.950Z,26.20
2023-03-26T22:11:00.927Z,26.20
2023-03-26T22:13:28.712Z,26.20
2023-03-26T22:15:56.804Z,26.20
2023-03-26T22:18:26.015Z,26.20
2023-03-26T22:20:54.366Z,26.20
2023-03-26T22:23:22.284Z,26.20
2023-03-26T22:25:50.364Z,26.20
2023-03-26T22:28:19.534Z,26.20
2023-03-26T22:30:47.502Z,26.20
2023-03-26T22:33:17.785Z,26.20
2023-03-26T22:35:46.097Z,26.20
2023-03-26T22:38:14.903Z,26.20
2023-03-26T22:40:42.797Z,26.20
2023-03-26T22:43:10.381Z,26.20
2023-03-26T22:45:39.306Z,26.20
2023-03-26T22:48:07.210Z,26.20
2023-03-26T22:50:34.878Z,26.20
2023-03-26T22:53:02.514Z,26.20
2023-03-26T22:55:30.240Z,26.20
2023-03-26T22:57:58.090Z,26.20
2023-03-26T23:00:26.440Z,26.20
2023-03-26T23:03:00.073Z,26.20
2023-03-26T23:05:28.531Z,26.20
2023-03-26T23:07:57.047Z,26.20
2023-03-26T23:10:24.697Z,26.20
2023-03-26T23:12:54.065Z,26.20
2023-03-26T23:15:22.087Z,26.20
2023-03-26T23:17:54.415Z,26.20
2023-03-26T23:20:24.160Z,26.20
2023-03-26T23:22:52.359Z,26.20
2023-03-26T23:25:20.164Z,26.20
2023-03-26T23:27:48.404Z,26.20
2023-03-26T23:30:16.680Z,26.20
2023-03-26T23:32:44.324Z,26.10
2023-03-26T23:35:12.146Z,26.10
2023-03-26T23:37:42.386Z,26.10
2023-03-26T23:40:12.477Z,26.10
2023-03-26T23:42:40.189Z,26.10
2023-03-26T23:45:09.168Z,26.10
2023-03-26T23:47:37.309Z,26.10
2023-03-26T23:50:06.451Z,26.10
2023-03-26T23:52:34.058Z,26.10
2023-03-26T23:55:03.143Z,26.10
2023-03-26T23:57:31.893Z,26.10
2023-03-26T23:59:59.519Z,26.10
